sensor_id;sensor_type;location;lat;lon;timestamp;temperature;humidity
13310;DHT22;6723;48.256;16.402;2023-03-11T00:00:18;10.50;83.80
13310;DHT22;6723;48.256;16.402;2023-03-11T00:02:46;10.40;83.60
13310;DHT22;6723;48.256;16.402;2023-03-11T00:05:17;10.40;83.60
13310;DHT22;6723;48.256;16.402;2023-03-11T00:07:43;10.40;83.80
13310;DHT22;6723;48.256;16.402;2023-03-11T00:10:32;10.50;83.70
13310;DHT22;6723;48.256;16.402;2023-03-11T00:12:59;10.40;82.20
13310;DHT22;6723;48.256;16.402;2023-03-11T00:15:27;10.30;81.40
13310;DHT22;6723;48.256;16.402;2023-03-11T00:17:57;10.40;81.10
13310;DHT22;6723;48.256;16.402;2023-03-11T00:20:29;10.30;81.00
13310;DHT22;6723;48.256;16.402;2023-03-11T00:22:57;10.30;81.00
13310;DHT22;6723;48.256;16.402;2023-03-11T00:25:25;10.30;80.80
13310;DHT22;6723;48.256;16.402;2023-03-11T00:27:51;10.30;80.80
13310;DHT22;6723;48.256;16.402;2023-03-11T00:30:18;10.20;80.80
13310;DHT22;6723;48.256;16.402;2023-03-11T00:32:48;10.30;81.20
13310;DHT22;6723;48.256;16.402;2023-03-11T00:35:22;10.20;82.80
13310;DHT22;6723;48.256;16.402;2023-03-11T00:37:53;10.10;83.00
13310;DHT22;6723;48.256;16.402;2023-03-11T00:40:20;10.20;83.70
13310;DHT22;6723;48.256;16.402;2023-03-11T00:42:47;10.20;84.20
13310;DHT22;6723;48.256;16.402;2023-03-11T00:45:13;10.00;87.60
13310;DHT22;6723;48.256;16.402;2023-03-11T00:47:40;9.70;90.00
13310;DHT22;6723;48.256;16.402;2023-03-11T00:50:07;9.60;89.80
13310;DHT22;6723;48.256;16.402;2023-03-11T00:52:34;9.50;90.00
13310;DHT22;6723;48.256;16.402;2023-03-11T00:55:00;9.40;90.40
13310;DHT22;6723;48.256;16.402;2023-03-11T00:57:26;9.30;90.40
13310;DHT22;6723;48.256;16.402;2023-03-11T00:59:54;9.30;90.80
13310;DHT22;6723;48.256;16.402;2023-03-11T01:02:20;9.20;91.00
13310;DHT22;6723;48.256;16.402;2023-03-11T01:04:46;9.10;91.30
13310;DHT22;6723;48.256;16.402;2023-03-11T01:07:12;9.00;91.50
13310;DHT22;6723;48.256;16.402;2023-03-11T01:09:38;9.00;91.60
13310;DHT22;6723;48.256;16.402;2023-03-11T01:12:04;9.00;91.80
13310;DHT22;6723;48.256;16.402;2023-03-11T01:14:35;8.90;92.00
13310;DHT22;6723;48.256;16.402;2023-03-11T01:17:00;8.90;92.10
13310;DHT22;6723;48.256;16.402;2023-03-11T01:19:26;8.90;92.10
13310;DHT22;6723;48.256;16.402;2023-03-11T01:21:52;8.90;92.20
13310;DHT22;6723;48.256;16.402;2023-03-11T01:24:18;8.90;92.10
13310;DHT22;6723;48.256;16.402;2023-03-11T01:26:43;8.80;92.10
13310;DHT22;6723;48.256;16.402;2023-03-11T01:29:09;8.80;92.10
13310;DHT22;6723;48.256;16.402;2023-03-11T01:31:35;8.90;91.80
13310;DHT22;6723;48.256;16.402;2023-03-11T01:34:01;8.80;91.40
13310;DHT22;6723;48.256;16.402;2023-03-11T01:36:27;8.90;91.40
13310;DHT22;6723;48.256;16.402;2023-03-11T01:38:53;8.90;90.00
13310;DHT22;6723;48.256;16.402;2023-03-11T01:41:18;9.00;87.70
13310;DHT22;6723;48.256;16.402;2023-03-11T01:48:51;9.00;81.60
13310;DHT22;6723;48.256;16.402;2023-03-11T01:51:42;8.90;81.80
13310;DHT22;6723;48.256;16.402;2023-03-11T01:54:11;8.90;81.00
13310;DHT22;6723;48.256;16.402;2023-03-11T01:56:39;8.90;79.30
13310;DHT22;6723;48.256;16.402;2023-03-11T01:59:09;8.90;79.00
13310;DHT22;6723;48.256;16.402;2023-03-11T02:01:46;8.90;77.30
13310;DHT22;6723;48.256;16.402;2023-03-11T02:04:15;8.90;77.40
13310;DHT22;6723;48.256;16.402;2023-03-11T02:06:41;8.90;77.50
13310;DHT22;6723;48.256;16.402;2023-03-11T02:09:07;8.90;78.10
13310;DHT22;6723;48.256;16.402;2023-03-11T02:11:33;8.80;78.40
13310;DHT22;6723;48.256;16.402;2023-03-11T02:14:02;8.80;79.20
13310;DHT22;6723;48.256;16.402;2023-03-11T02:16:29;8.70;78.70
13310;DHT22;6723;48.256;16.402;2023-03-11T02:18:57;8.60;77.70
13310;DHT22;6723;48.256;16.402;2023-03-11T02:21:28;8.50;76.50
13310;DHT22;6723;48.256;16.402;2023-03-11T02:29:21;8.30;74.70
13310;DHT22;6723;48.256;16.402;2023-03-11T02:31:47;8.10;74.40
13310;DHT22;6723;48.256;16.402;2023-03-11T02:34:46;8.10;74.40
13310;DHT22;6723;48.256;16.402;2023-03-11T02:37:15;8.00;74.40
13310;DHT22;6723;48.256;16.402;2023-03-11T02:39:43;7.90;74.60
13310;DHT22;6723;48.256;16.402;2023-03-11T02:42:22;7.80;75.00
13310;DHT22;6723;48.256;16.402;2023-03-11T02:44:59;7.80;74.90
13310;DHT22;6723;48.256;16.402;2023-03-11T02:47:26;7.70;74.90
13310;DHT22;6723;48.256;16.402;2023-03-11T02:49:54;7.60;74.70
13310;DHT22;6723;48.256;16.402;2023-03-11T02:52:23;7.60;74.80
13310;DHT22;6723;48.256;16.402;2023-03-11T02:54:49;7.60;74.50
13310;DHT22;6723;48.256;16.402;2023-03-11T02:57:15;7.50;74.50
13310;DHT22;6723;48.256;16.402;2023-03-11T02:59:41;7.50;74.50
13310;DHT22;6723;48.256;16.402;2023-03-11T03:02:07;7.50;74.40
13310;DHT22;6723;48.256;16.402;2023-03-11T03:04:32;7.50;74.40
13310;DHT22;6723;48.256;16.402;2023-03-11T03:06:58;7.40;74.50
13310;DHT22;6723;48.256;16.402;2023-03-11T03:09:24;7.40;73.70
13310;DHT22;6723;48.256;16.402;2023-03-11T03:11:50;7.40;72.50
13310;DHT22;6723;48.256;16.402;2023-03-11T03:14:15;7.30;73.00
13310;DHT22;6723;48.256;16.402;2023-03-11T03:16:41;7.30;73.30
13310;DHT22;6723;48.256;16.402;2023-03-11T03:19:08;7.30;71.30
13310;DHT22;6723;48.256;16.402;2023-03-11T03:21:33;7.30;70.40
13310;DHT22;6723;48.256;16.402;2023-03-11T03:23:59;7.30;70.50
13310;DHT22;6723;48.256;16.402;2023-03-11T03:26:25;7.20;70.00
13310;DHT22;6723;48.256;16.402;2023-03-11T03:28:51;7.30;70.50
13310;DHT22;6723;48.256;16.402;2023-03-11T03:31:17;7.20;69.30
13310;DHT22;6723;48.256;16.402;2023-03-11T03:33:44;7.20;69.50
13310;DHT22;6723;48.256;16.402;2023-03-11T03:36:12;7.20;69.70
13310;DHT22;6723;48.256;16.402;2023-03-11T03:38:38;7.10;69.40
13310;DHT22;6723;48.256;16.402;2023-03-11T03:41:04;7.10;68.80
13310;DHT22;6723;48.256;16.402;2023-03-11T03:43:30;7.10;68.80
13310;DHT22;6723;48.256;16.402;2023-03-11T03:45:58;7.00;68.80
13310;DHT22;6723;48.256;16.402;2023-03-11T03:48:25;7.00;68.20
13310;DHT22;6723;48.256;16.402;2023-03-11T03:50:51;6.90;67.70
13310;DHT22;6723;48.256;16.402;2023-03-11T03:53:17;6.90;68.10
13310;DHT22;6723;48.256;16.402;2023-03-11T03:55:43;6.90;67.90
13310;DHT22;6723;48.256;16.402;2023-03-11T03:58:09;6.80;68.10
13310;DHT22;6723;48.256;16.402;2023-03-11T04:00:35;6.70;68.00
13310;DHT22;6723;48.256;16.402;2023-03-11T04:03:00;6.70;68.00
13310;DHT22;6723;48.256;16.402;2023-03-11T04:05:26;6.60;68.20
13310;DHT22;6723;48.256;16.402;2023-03-11T04:07:53;6.50;67.10
13310;DHT22;6723;48.256;16.402;2023-03-11T04:10:19;6.40;66.40
13310;DHT22;6723;48.256;16.402;2023-03-11T04:12:45;6.40;66.20
13310;DHT22;6723;48.256;16.402;2023-03-11T04:15:11;6.30;65.90
13310;DHT22;6723;48.256;16.402;2023-03-11T04:17:37;6.20;66.30
13310;DHT22;6723;48.256;16.402;2023-03-11T04:20:04;6.20;65.80
13310;DHT22;6723;48.256;16.402;2023-03-11T04:22:33;6.20;66.20
13310;DHT22;6723;48.256;16.402;2023-03-11T04:24:59;6.10;65.90
13310;DHT22;6723;48.256;16.402;2023-03-11T04:27:24;6.00;65.90
13310;DHT22;6723;48.256;16.402;2023-03-11T04:29:51;6.00;65.90
13310;DHT22;6723;48.256;16.402;2023-03-11T04:32:16;5.90;65.70
13310;DHT22;6723;48.256;16.402;2023-03-11T04:34:42;5.90;65.90
13310;DHT22;6723;48.256;16.402;2023-03-11T04:37:08;5.90;65.70
13310;DHT22;6723;48.256;16.402;2023-03-11T04:39:34;5.80;65.70
13310;DHT22;6723;48.256;16.402;2023-03-11T04:42:00;5.80;65.90
13310;DHT22;6723;48.256;16.402;2023-03-11T04:44:25;5.80;65.90
13310;DHT22;6723;48.256;16.402;2023-03-11T04:46:51;5.80;66.30
13310;DHT22;6723;48.256;16.402;2023-03-11T04:49:17;5.70;66.10
13310;DHT22;6723;48.256;16.402;2023-03-11T04:51:43;5.60;66.10
13310;DHT22;6723;48.256;16.402;2023-03-11T04:54:09;5.60;65.80
13310;DHT22;6723;48.256;16.402;2023-03-11T04:56:35;5.60;66.10
13310;DHT22;6723;48.256;16.402;2023-03-11T04:59:01;5.50;66.40
13310;DHT22;6723;48.256;16.402;2023-03-11T05:01:26;5.50;66.70
13310;DHT22;6723;48.256;16.402;2023-03-11T05:03:52;5.40;66.50
13310;DHT22;6723;48.256;16.402;2023-03-11T05:06:18;5.40;66.60
13310;DHT22;6723;48.256;16.402;2023-03-11T05:08:43;5.40;66.80
13310;DHT22;6723;48.256;16.402;2023-03-11T05:11:09;5.30;66.90
13310;DHT22;6723;48.256;16.402;2023-03-11T05:13:35;5.30;66.70
13310;DHT22;6723;48.256;16.402;2023-03-11T05:16:01;5.30;66.50
13310;DHT22;6723;48.256;16.402;2023-03-11T05:18:26;5.40;66.10
13310;DHT22;6723;48.256;16.402;2023-03-11T05:20:52;5.30;66.00
13310;DHT22;6723;48.256;16.402;2023-03-11T05:23:18;5.30;66.00
13310;DHT22;6723;48.256;16.402;2023-03-11T05:25:44;5.30;66.00
13310;DHT22;6723;48.256;16.402;2023-03-11T05:28:10;5.40;66.40
13310;DHT22;6723;48.256;16.402;2023-03-11T05:30:36;5.40;66.20
13310;DHT22;6723;48.256;16.402;2023-03-11T05:33:01;5.40;65.90
13310;DHT22;6723;48.256;16.402;2023-03-11T05:35:28;5.40;65.80
13310;DHT22;6723;48.256;16.402;2023-03-11T05:37:54;5.40;65.80
13310;DHT22;6723;48.256;16.402;2023-03-11T05:40:21;5.40;65.70
13310;DHT22;6723;48.256;16.402;2023-03-11T05:42:46;5.50;65.60
13310;DHT22;6723;48.256;16.402;2023-03-11T05:45:12;5.50;65.50
13310;DHT22;6723;48.256;16.402;2023-03-11T05:47:38;5.50;65.60
13310;DHT22;6723;48.256;16.402;2023-03-11T05:50:08;5.50;65.60
13310;DHT22;6723;48.256;16.402;2023-03-11T05:52:34;5.60;65.20
13310;DHT22;6723;48.256;16.402;2023-03-11T05:55:00;5.60;65.40
13310;DHT22;6723;48.256;16.402;2023-03-11T05:57:25;5.70;65.20
13310;DHT22;6723;48.256;16.402;2023-03-11T05:59:51;5.70;65.50
13310;DHT22;6723;48.256;16.402;2023-03-11T06:02:17;5.80;65.40
13310;DHT22;6723;48.256;16.402;2023-03-11T06:04:43;5.80;65.50
13310;DHT22;6723;48.256;16.402;2023-03-11T06:07:09;5.90;64.80
13310;DHT22;6723;48.256;16.402;2023-03-11T06:09:36;5.90;64.70
13310;DHT22;6723;48.256;16.402;2023-03-11T06:12:03;5.90;64.60
13310;DHT22;6723;48.256;16.402;2023-03-11T06:14:29;5.90;64.60
13310;DHT22;6723;48.256;16.402;2023-03-11T06:16:58;5.80;64.40
13310;DHT22;6723;48.256;16.402;2023-03-11T06:19:25;5.90;64.40
13310;DHT22;6723;48.256;16.402;2023-03-11T06:21:51;6.00;64.70
13310;DHT22;6723;48.256;16.402;2023-03-11T06:24:17;6.00;64.20
13310;DHT22;6723;48.256;16.402;2023-03-11T06:26:43;6.00;64.60
13310;DHT22;6723;48.256;16.402;2023-03-11T06:29:13;6.10;64.70
13310;DHT22;6723;48.256;16.402;2023-03-11T06:31:39;6.10;64.20
13310;DHT22;6723;48.256;16.402;2023-03-11T06:34:06;6.10;64.20
13310;DHT22;6723;48.256;16.402;2023-03-11T06:36:32;6.10;64.50
13310;DHT22;6723;48.256;16.402;2023-03-11T06:38:58;6.20;64.60
13310;DHT22;6723;48.256;16.402;2023-03-11T06:41:24;6.30;64.80
13310;DHT22;6723;48.256;16.402;2023-03-11T06:43:50;6.30;64.40
13310;DHT22;6723;48.256;16.402;2023-03-11T06:46:21;6.30;64.90
13310;DHT22;6723;48.256;16.402;2023-03-11T06:48:48;6.30;64.80
13310;DHT22;6723;48.256;16.402;2023-03-11T06:51:18;6.40;64.70
13310;DHT22;6723;48.256;16.402;2023-03-11T06:53:48;6.40;64.70
13310;DHT22;6723;48.256;16.402;2023-03-11T06:56:14;6.60;63.70
13310;DHT22;6723;48.256;16.402;2023-03-11T06:58:41;6.60;64.20
13310;DHT22;6723;48.256;16.402;2023-03-11T07:01:14;6.80;64.30
13310;DHT22;6723;48.256;16.402;2023-03-11T07:03:41;7.00;63.70
13310;DHT22;6723;48.256;16.402;2023-03-11T07:06:22;7.30;62.90
13310;DHT22;6723;48.256;16.402;2023-03-11T07:08:49;7.80;62.10
13310;DHT22;6723;48.256;16.402;2023-03-11T07:11:18;8.10;61.70
13310;DHT22;6723;48.256;16.402;2023-03-11T07:13:44;8.40;60.70
13310;DHT22;6723;48.256;16.402;2023-03-11T07:16:13;8.90;60.10
13310;DHT22;6723;48.256;16.402;2023-03-11T07:18:43;9.50;59.70
13310;DHT22;6723;48.256;16.402;2023-03-11T07:21:16;9.80;58.60
13310;DHT22;6723;48.256;16.402;2023-03-11T07:23:42;10.50;57.20
13310;DHT22;6723;48.256;16.402;2023-03-11T07:26:13;10.00;56.80
13310;DHT22;6723;48.256;16.402;2023-03-11T07:28:39;10.20;56.70
13310;DHT22;6723;48.256;16.402;2023-03-11T07:31:08;10.40;55.90
13310;DHT22;6723;48.256;16.402;2023-03-11T07:33:35;10.70;55.50
13310;DHT22;6723;48.256;16.402;2023-03-11T07:36:05;10.70;54.70
13310;DHT22;6723;48.256;16.402;2023-03-11T07:38:31;10.50;54.50
13310;DHT22;6723;48.256;16.402;2023-03-11T07:40:58;10.70;55.50
13310;DHT22;6723;48.256;16.402;2023-03-11T07:43:24;11.00;54.10
13310;DHT22;6723;48.256;16.402;2023-03-11T07:45:50;11.50;54.00
13310;DHT22;6723;48.256;16.402;2023-03-11T07:48:16;10.90;54.20
13310;DHT22;6723;48.256;16.402;2023-03-11T07:50:42;11.10;53.50
13310;DHT22;6723;48.256;16.402;2023-03-11T07:53:08;10.80;53.30
13310;DHT22;6723;48.256;16.402;2023-03-11T07:55:36;10.80;54.10
13310;DHT22;6723;48.256;16.402;2023-03-11T07:58:02;11.10;53.50
13310;DHT22;6723;48.256;16.402;2023-03-11T08:00:28;10.60;53.70
13310;DHT22;6723;48.256;16.402;2023-03-11T08:02:56;11.00;54.10
13310;DHT22;6723;48.256;16.402;2023-03-11T08:05:22;10.80;54.60
13310;DHT22;6723;48.256;16.402;2023-03-11T08:07:48;10.60;53.80
13310;DHT22;6723;48.256;16.402;2023-03-11T08:10:14;9.90;55.20
13310;DHT22;6723;48.256;16.402;2023-03-11T08:12:40;9.30;56.40
13310;DHT22;6723;48.256;16.402;2023-03-11T08:15:06;9.20;57.10
13310;DHT22;6723;48.256;16.402;2023-03-11T08:17:32;9.40;57.10
13310;DHT22;6723;48.256;16.402;2023-03-11T08:19:57;9.10;57.00
13310;DHT22;6723;48.256;16.402;2023-03-11T08:22:24;9.10;57.00
13310;DHT22;6723;48.256;16.402;2023-03-11T08:24:51;9.60;57.20
13310;DHT22;6723;48.256;16.402;2023-03-11T08:27:17;9.60;56.90
13310;DHT22;6723;48.256;16.402;2023-03-11T08:29:43;9.60;56.30
13310;DHT22;6723;48.256;16.402;2023-03-11T08:32:09;9.50;56.40
13310;DHT22;6723;48.256;16.402;2023-03-11T08:34:34;9.30;56.50
13310;DHT22;6723;48.256;16.402;2023-03-11T08:37:00;9.30;57.20
13310;DHT22;6723;48.256;16.402;2023-03-11T08:39:26;9.70;57.80
13310;DHT22;6723;48.256;16.402;2023-03-11T08:41:52;9.90;57.20
13310;DHT22;6723;48.256;16.402;2023-03-11T08:44:18;9.80;57.00
13310;DHT22;6723;48.256;16.402;2023-03-11T08:46:44;10.00;56.00
13310;DHT22;6723;48.256;16.402;2023-03-11T08:49:10;10.00;55.40
13310;DHT22;6723;48.256;16.402;2023-03-11T08:51:35;10.30;55.70
13310;DHT22;6723;48.256;16.402;2023-03-11T08:54:02;10.00;54.80
13310;DHT22;6723;48.256;16.402;2023-03-11T08:56:28;9.50;55.80
13310;DHT22;6723;48.256;16.402;2023-03-11T08:58:55;9.50;56.00
13310;DHT22;6723;48.256;16.402;2023-03-11T09:01:20;9.90;56.20
13310;DHT22;6723;48.256;16.402;2023-03-11T09:03:47;10.00;55.20
13310;DHT22;6723;48.256;16.402;2023-03-11T09:06:14;10.30;55.30
13310;DHT22;6723;48.256;16.402;2023-03-11T09:08:42;10.70;55.30
13310;DHT22;6723;48.256;16.402;2023-03-11T09:11:09;11.00;54.60
13310;DHT22;6723;48.256;16.402;2023-03-11T09:13:35;11.20;55.00
13310;DHT22;6723;48.256;16.402;2023-03-11T09:16:01;11.10;54.10
13310;DHT22;6723;48.256;16.402;2023-03-11T09:18:27;11.00;54.50
13310;DHT22;6723;48.256;16.402;2023-03-11T09:20:53;10.70;54.40
13310;DHT22;6723;48.256;16.402;2023-03-11T09:23:23;10.60;54.70
13310;DHT22;6723;48.256;16.402;2023-03-11T09:25:48;10.50;54.60
13310;DHT22;6723;48.256;16.402;2023-03-11T09:28:14;10.20;55.10
13310;DHT22;6723;48.256;16.402;2023-03-11T09:30:40;9.90;56.50
13310;DHT22;6723;48.256;16.402;2023-03-11T09:33:06;9.50;56.70
13310;DHT22;6723;48.256;16.402;2023-03-11T09:35:36;10.00;56.20
13310;DHT22;6723;48.256;16.402;2023-03-11T09:38:02;10.90;54.70
13310;DHT22;6723;48.256;16.402;2023-03-11T09:40:53;11.00;54.50
13310;DHT22;6723;48.256;16.402;2023-03-11T09:46:42;11.10;54.80
13310;DHT22;6723;48.256;16.402;2023-03-11T09:52:09;11.30;53.70
13310;DHT22;6723;48.256;16.402;2023-03-11T09:54:50;11.60;54.50
13310;DHT22;6723;48.256;16.402;2023-03-11T09:57:23;11.90;53.50
13310;DHT22;6723;48.256;16.402;2023-03-11T09:59:49;12.60;53.10
13310;DHT22;6723;48.256;16.402;2023-03-11T10:02:21;13.20;52.80
13310;DHT22;6723;48.256;16.402;2023-03-11T10:05:08;12.70;52.40
13310;DHT22;6723;48.256;16.402;2023-03-11T10:07:39;11.80;53.30
13310;DHT22;6723;48.256;16.402;2023-03-11T10:10:12;11.80;54.00
13310;DHT22;6723;48.256;16.402;2023-03-11T10:18:08;12.20;54.10
13310;DHT22;6723;48.256;16.402;2023-03-11T10:32:05;12.90;52.30
13310;DHT22;6723;48.256;16.402;2023-03-11T10:34:46;12.60;51.60
13310;DHT22;6723;48.256;16.402;2023-03-11T10:37:24;12.60;52.40
13310;DHT22;6723;48.256;16.402;2023-03-11T10:39:51;12.30;52.10
13310;DHT22;6723;48.256;16.402;2023-03-11T10:42:24;11.90;52.60
13310;DHT22;6723;48.256;16.402;2023-03-11T10:44:51;11.80;52.10
13310;DHT22;6723;48.256;16.402;2023-03-11T10:47:21;11.80;52.70
13310;DHT22;6723;48.256;16.402;2023-03-11T10:49:48;11.60;52.60
13310;DHT22;6723;48.256;16.402;2023-03-11T10:52:14;11.80;52.80
13310;DHT22;6723;48.256;16.402;2023-03-11T10:54:46;11.10;52.90
13310;DHT22;6723;48.256;16.402;2023-03-11T10:57:47;10.20;53.40
13310;DHT22;6723;48.256;16.402;2023-03-11T11:00:28;9.90;55.10
13310;DHT22;6723;48.256;16.402;2023-03-11T11:02:56;9.40;55.10
13310;DHT22;6723;48.256;16.402;2023-03-11T11:05:33;9.30;55.50
13310;DHT22;6723;48.256;16.402;2023-03-11T11:08:12;8.90;55.50
13310;DHT22;6723;48.256;16.402;2023-03-11T11:10:51;9.70;55.90
13310;DHT22;6723;48.256;16.402;2023-03-11T11:13:22;10.20;54.20
13310;DHT22;6723;48.256;16.402;2023-03-11T11:15:55;11.20;54.50
13310;DHT22;6723;48.256;16.402;2023-03-11T11:18:47;12.40;52.60
13310;DHT22;6723;48.256;16.402;2023-03-11T11:21:25;12.90;53.00
13310;DHT22;6723;48.256;16.402;2023-03-11T11:24:23;13.50;51.70
13310;DHT22;6723;48.256;16.402;2023-03-11T11:27:23;11.70;52.00
13310;DHT22;6723;48.256;16.402;2023-03-11T11:30:21;10.80;53.90
13310;DHT22;6723;48.256;16.402;2023-03-11T11:32:48;10.00;55.30
13310;DHT22;6723;48.256;16.402;2023-03-11T11:35:19;9.40;56.40
13310;DHT22;6723;48.256;16.402;2023-03-11T11:37:49;9.10;57.10
13310;DHT22;6723;48.256;16.402;2023-03-11T11:47:48;9.30;56.90
13310;DHT22;6723;48.256;16.402;2023-03-11T11:53:18;9.30;56.80
13310;DHT22;6723;48.256;16.402;2023-03-11T11:55:49;9.80;56.20
13310;DHT22;6723;48.256;16.402;2023-03-11T11:58:18;10.30;55.00
13310;DHT22;6723;48.256;16.402;2023-03-11T12:01:04;10.40;53.10
13310;DHT22;6723;48.256;16.402;2023-03-11T12:03:52;10.60;52.50
13310;DHT22;6723;48.256;16.402;2023-03-11T12:15:08;9.30;55.20
13310;DHT22;6723;48.256;16.402;2023-03-11T12:17:41;9.40;55.70
13310;DHT22;6723;48.256;16.402;2023-03-11T12:20:25;9.60;56.00
13310;DHT22;6723;48.256;16.402;2023-03-11T12:31:11;9.30;56.50
13310;DHT22;6723;48.256;16.402;2023-03-11T12:33:57;9.10;56.00
13310;DHT22;6723;48.256;16.402;2023-03-11T12:36:35;8.80;55.70
13310;DHT22;6723;48.256;16.402;2023-03-11T12:39:04;8.70;56.20
13310;DHT22;6723;48.256;16.402;2023-03-11T12:41:34;8.50;56.50
13310;DHT22;6723;48.256;16.402;2023-03-11T12:44:28;8.50;56.70
13310;DHT22;6723;48.256;16.402;2023-03-11T12:49:34;8.40;57.50
13310;DHT22;6723;48.256;16.402;2023-03-11T12:54:44;8.20;58.10
13310;DHT22;6723;48.256;16.402;2023-03-11T13:00:06;7.90;58.70
13310;DHT22;6723;48.256;16.402;2023-03-11T13:10:42;8.20;58.80
13310;DHT22;6723;48.256;16.402;2023-03-11T13:13:35;8.30;58.80
13310;DHT22;6723;48.256;16.402;2023-03-11T13:18:48;8.10;57.90
13310;DHT22;6723;48.256;16.402;2023-03-11T13:26:41;7.70;59.00
13310;DHT22;6723;48.256;16.402;2023-03-11T13:29:34;7.70;59.40
13310;DHT22;6723;48.256;16.402;2023-03-11T13:40:25;8.00;59.70
13310;DHT22;6723;48.256;16.402;2023-03-11T13:43:14;8.10;59.10
13310;DHT22;6723;48.256;16.402;2023-03-11T13:45:47;8.10;59.20
13310;DHT22;6723;48.256;16.402;2023-03-11T13:48:55;8.00;58.90
13310;DHT22;6723;48.256;16.402;2023-03-11T13:51:40;7.80;59.10
13310;DHT22;6723;48.256;16.402;2023-03-11T13:56:51;7.60;59.70
13310;DHT22;6723;48.256;16.402;2023-03-11T14:01:59;7.30;59.70
13310;DHT22;6723;48.256;16.402;2023-03-11T14:04:31;7.40;59.90
13310;DHT22;6723;48.256;16.402;2023-03-11T14:06:58;7.30;59.60
13310;DHT22;6723;48.256;16.402;2023-03-11T14:09:26;7.30;59.70
13310;DHT22;6723;48.256;16.402;2023-03-11T14:11:54;7.40;59.00
13310;DHT22;6723;48.256;16.402;2023-03-11T14:17:12;7.50;58.20
13310;DHT22;6723;48.256;16.402;2023-03-11T14:19:39;7.40;58.10
13310;DHT22;6723;48.256;16.402;2023-03-11T14:22:07;7.40;58.00
13310;DHT22;6723;48.256;16.402;2023-03-11T14:24:34;7.50;57.70
13310;DHT22;6723;48.256;16.402;2023-03-11T14:27:03;7.50;57.80
13310;DHT22;6723;48.256;16.402;2023-03-11T14:29:34;7.40;57.80
13310;DHT22;6723;48.256;16.402;2023-03-11T14:32:24;7.50;58.00
13310;DHT22;6723;48.256;16.402;2023-03-11T14:34:50;7.40;57.90
13310;DHT22;6723;48.256;16.402;2023-03-11T14:37:37;7.30;57.90
13310;DHT22;6723;48.256;16.402;2023-03-11T14:42:49;7.40;57.60
13310;DHT22;6723;48.256;16.402;2023-03-11T14:45:20;7.50;57.20
13310;DHT22;6723;48.256;16.402;2023-03-11T14:50:26;7.50;57.20
13310;DHT22;6723;48.256;16.402;2023-03-11T14:55:37;7.40;56.70
13310;DHT22;6723;48.256;16.402;2023-03-11T14:58:14;7.10;56.80
13310;DHT22;6723;48.256;16.402;2023-03-11T15:03:26;7.00;57.80
13310;DHT22;6723;48.256;16.402;2023-03-11T15:05:56;7.10;58.40
13310;DHT22;6723;48.256;16.402;2023-03-11T15:08:26;7.00;58.80
13310;DHT22;6723;48.256;16.402;2023-03-11T15:13:39;6.90;58.60
13310;DHT22;6723;48.256;16.402;2023-03-11T15:16:20;7.00;58.00
13310;DHT22;6723;48.256;16.402;2023-03-11T15:18:46;7.00;57.40
13310;DHT22;6723;48.256;16.402;2023-03-11T15:21:15;6.80;57.30
13310;DHT22;6723;48.256;16.402;2023-03-11T15:23:48;6.90;57.60
13310;DHT22;6723;48.256;16.402;2023-03-11T15:28:44;7.10;61.50
13310;DHT22;6723;48.256;16.402;2023-03-11T15:31:27;6.90;59.40
13310;DHT22;6723;48.256;16.402;2023-03-11T15:39:18;6.90;59.40
13310;DHT22;6723;48.256;16.402;2023-03-11T15:41:46;6.80;58.60
13310;DHT22;6723;48.256;16.402;2023-03-11T15:44:23;6.80;58.80
13310;DHT22;6723;48.256;16.402;2023-03-11T15:46:50;6.70;57.90
13310;DHT22;6723;48.256;16.402;2023-03-11T15:49:16;6.60;57.90
13310;DHT22;6723;48.256;16.402;2023-03-11T15:51:41;6.50;57.80
13310;DHT22;6723;48.256;16.402;2023-03-11T15:54:07;6.50;58.10
13310;DHT22;6723;48.256;16.402;2023-03-11T15:56:33;6.50;58.60
13310;DHT22;6723;48.256;16.402;2023-03-11T15:58:59;6.50;59.00
13310;DHT22;6723;48.256;16.402;2023-03-11T16:01:27;6.40;59.10
13310;DHT22;6723;48.256;16.402;2023-03-11T16:03:55;6.30;59.70
13310;DHT22;6723;48.256;16.402;2023-03-11T16:06:20;6.20;60.20
13310;DHT22;6723;48.256;16.402;2023-03-11T16:08:49;6.20;60.80
13310;DHT22;6723;48.256;16.402;2023-03-11T16:11:16;6.30;61.00
13310;DHT22;6723;48.256;16.402;2023-03-11T16:13:43;6.20;61.10
13310;DHT22;6723;48.256;16.402;2023-03-11T16:16:15;6.10;61.30
13310;DHT22;6723;48.256;16.402;2023-03-11T16:18:41;6.00;61.40
13310;DHT22;6723;48.256;16.402;2023-03-11T16:21:18;6.00;61.50
13310;DHT22;6723;48.256;16.402;2023-03-11T16:23:46;6.00;61.90
13310;DHT22;6723;48.256;16.402;2023-03-11T16:26:13;5.90;61.70
13310;DHT22;6723;48.256;16.402;2023-03-11T16:28:40;5.90;61.80
13310;DHT22;6723;48.256;16.402;2023-03-11T16:31:07;5.90;61.80
13310;DHT22;6723;48.256;16.402;2023-03-11T16:33:36;5.80;62.00
13310;DHT22;6723;48.256;16.402;2023-03-11T16:36:03;5.90;62.00
13310;DHT22;6723;48.256;16.402;2023-03-11T16:38:30;5.80;61.70
13310;DHT22;6723;48.256;16.402;2023-03-11T16:41:01;5.80;61.90
13310;DHT22;6723;48.256;16.402;2023-03-11T16:43:28;5.80;62.60
13310;DHT22;6723;48.256;16.402;2023-03-11T16:45:55;5.90;63.10
13310;DHT22;6723;48.256;16.402;2023-03-11T16:48:22;5.90;64.10
13310;DHT22;6723;48.256;16.402;2023-03-11T16:50:48;6.00;64.60
13310;DHT22;6723;48.256;16.402;2023-03-11T16:53:15;6.00;64.10
13310;DHT22;6723;48.256;16.402;2023-03-11T16:55:44;5.90;64.00
13310;DHT22;6723;48.256;16.402;2023-03-11T16:58:10;5.80;65.60
13310;DHT22;6723;48.256;16.402;2023-03-11T17:00:36;5.70;66.90
13310;DHT22;6723;48.256;16.402;2023-03-11T17:03:02;5.70;67.60
13310;DHT22;6723;48.256;16.402;2023-03-11T17:05:29;5.60;68.80
13310;DHT22;6723;48.256;16.402;2023-03-11T17:07:56;5.50;69.30
13310;DHT22;6723;48.256;16.402;2023-03-11T17:10:29;5.40;69.70
13310;DHT22;6723;48.256;16.402;2023-03-11T17:12:55;5.40;70.40
13310;DHT22;6723;48.256;16.402;2023-03-11T17:15:21;5.40;71.00
13310;DHT22;6723;48.256;16.402;2023-03-11T17:17:47;5.20;71.20
13310;DHT22;6723;48.256;16.402;2023-03-11T17:20:13;5.20;71.40
13310;DHT22;6723;48.256;16.402;2023-03-11T17:22:38;5.20;71.70
13310;DHT22;6723;48.256;16.402;2023-03-11T17:25:04;5.30;72.40
13310;DHT22;6723;48.256;16.402;2023-03-11T17:27:30;5.30;72.30
13310;DHT22;6723;48.256;16.402;2023-03-11T17:29:58;5.30;72.40
13310;DHT22;6723;48.256;16.402;2023-03-11T17:32:24;5.30;72.50
13310;DHT22;6723;48.256;16.402;2023-03-11T17:34:50;5.20;73.20
13310;DHT22;6723;48.256;16.402;2023-03-11T17:37:16;5.30;73.90
13310;DHT22;6723;48.256;16.402;2023-03-11T17:39:43;5.20;73.10
13310;DHT22;6723;48.256;16.402;2023-03-11T17:42:09;5.20;72.60
13310;DHT22;6723;48.256;16.402;2023-03-11T17:44:35;5.10;72.30
13310;DHT22;6723;48.256;16.402;2023-03-11T17:47:01;5.10;72.30
13310;DHT22;6723;48.256;16.402;2023-03-11T17:49:26;5.00;71.90
13310;DHT22;6723;48.256;16.402;2023-03-11T17:51:52;5.00;71.90
13310;DHT22;6723;48.256;16.402;2023-03-11T17:54:18;5.00;71.90
13310;DHT22;6723;48.256;16.402;2023-03-11T17:56:44;5.00;72.00